Terminal Aerodrome Forecast
Issued by NWS Tulsa, OK

Home | Current Version | Previous Version | Text Only | Print | Product List | Glossary Off
Versions: 1 2 3 4 5 6 7 8 9 10 11 12 13 14

000
FTUS44 KTSA 261100
TAFTUL
TAF
KTUL 261120Z 2612/2712 00000KT P6SM SKC
     FM261600 24011KT P6SM SKC
     FM270000 31003KT P6SM SKC=

USA.gov is the U.S. government's official web portal to all federal, state and local government web resources and services.